DXB weather

Dubai International Airport
Dubai, Dubai Emirate, United Arab Emirates

Public forecast

Using degrees Celsius for public forecast. Weather courtesy of forecast.io.

METAR (pilot weather report)

Retrieved 2018/12/15 08:00 UTC (25 minutes ago):

OMDB 150800Z 18007KT 150V220 9999 FEW035 26/15 Q1020 NOSIG

TAF (pilot weather forecast)

Retrieved 2018/12/15 06:00 UTC (2 hours ago):

TAF OMDB 150457Z 1506/1612 06005KT 8000 FEW035 BECMG 1509/1511 35010KT PROB30 TEMPO 1509/1515 VRB15G30KT 3000 BLDU FEW035TCU BECMG 1515/1517 06005KT BECMG 1609/1611 35012KT